sensor_id;sensor_type;location;lat;lon;timestamp;pressure;altitude;pressure_sealevel;temperature;humidity
21821;BME280;11073;48.586;12.066;2022-09-29T00:01:33;95060.09;;;10.01;74.48
21821;BME280;11073;48.586;12.066;2022-09-29T00:04:02;95062.25;;;9.94;74.44
21821;BME280;11073;48.586;12.066;2022-09-29T00:06:31;95055.47;;;9.91;74.44
21821;BME280;11073;48.586;12.066;2022-09-29T00:08:59;95066.56;;;9.95;74.44
21821;BME280;11073;48.586;12.066;2022-09-29T00:11:28;95064.69;;;9.95;74.48
21821;BME280;11073;48.586;12.066;2022-09-29T00:13:59;95054.94;;;9.89;74.50
21821;BME280;11073;48.586;12.066;2022-09-29T00:16:28;95061.44;;;9.93;74.85
21821;BME280;11073;48.586;12.066;2022-09-29T00:18:57;95057.38;;;9.96;74.73
21821;BME280;11073;48.586;12.066;2022-09-29T00:21:26;95058.19;;;9.97;74.59
21821;BME280;11073;48.586;12.066;2022-09-29T00:23:54;95054.94;;;9.94;74.42
21821;BME280;11073;48.586;12.066;2022-09-29T00:26:23;95056.56;;;9.90;74.54
21821;BME280;11073;48.586;12.066;2022-09-29T00:28:54;95064.66;;;9.80;74.53
21821;BME280;11073;48.586;12.066;2022-09-29T00:31:26;95057.06;;;9.77;74.63
21821;BME280;11073;48.586;12.066;2022-09-29T00:33:56;95065.72;;;9.74;74.72
21821;BME280;11073;48.586;12.066;2022-09-29T00:36:25;95057.88;;;9.73;74.56
21821;BME280;11073;48.586;12.066;2022-09-29T00:38:57;95065.19;;;9.72;74.50
21821;BME280;11073;48.586;12.066;2022-09-29T00:41:27;95057.59;;;9.69;74.57
21821;BME280;11073;48.586;12.066;2022-09-29T00:43:59;95055.44;;;9.66;74.71
21821;BME280;11073;48.586;12.066;2022-09-29T00:46:41;95046.50;;;9.60;74.69
21821;BME280;11073;48.586;12.066;2022-09-29T00:49:17;95049.97;;;9.51;74.61
21821;BME280;11073;48.586;12.066;2022-09-29T00:51:51;95046.19;;;9.52;74.75
21821;BME280;11073;48.586;12.066;2022-09-29T00:54:24;95047.53;;;9.49;74.76
21821;BME280;11073;48.586;12.066;2022-09-29T00:56:56;95053.75;;;9.50;74.67
21821;BME280;11073;48.586;12.066;2022-09-29T00:59:31;95054.84;;;9.54;74.58
21821;BME280;11073;48.586;12.066;2022-09-29T01:02:03;95045.13;;;9.58;74.50
21821;BME280;11073;48.586;12.066;2022-09-29T01:04:32;95053.25;;;9.63;74.68
21821;BME280;11073;48.586;12.066;2022-09-29T01:07:01;95045.97;;;9.63;74.51
21821;BME280;11073;48.586;12.066;2022-09-29T01:09:34;95018.38;;;9.51;74.54
21821;BME280;11073;48.586;12.066;2022-09-29T01:12:05;95043.75;;;9.55;74.39
21821;BME280;11073;48.586;12.066;2022-09-29T01:14:36;95041.06;;;9.55;74.23
21821;BME280;11073;48.586;12.066;2022-09-29T01:17:07;95042.94;;;9.55;74.29
21821;BME280;11073;48.586;12.066;2022-09-29T01:19:43;95045.38;;;9.51;74.35
21821;BME280;11073;48.586;12.066;2022-09-29T01:22:25;95045.69;;;9.60;74.27
21821;BME280;11073;48.586;12.066;2022-09-29T01:25:10;95037.31;;;9.56;74.18
21821;BME280;11073;48.586;12.066;2022-09-29T01:28:09;95045.09;;;9.48;74.06
21821;BME280;11073;48.586;12.066;2022-09-29T01:31:08;95031.25;;;9.34;73.86
21821;BME280;11073;48.586;12.066;2022-09-29T01:33:44;95025.31;;;9.32;74.14
21821;BME280;11073;48.586;12.066;2022-09-29T01:36:23;95021.84;;;9.36;74.17
21821;BME280;11073;48.586;12.066;2022-09-29T01:39:06;95023.72;;;9.36;74.16
21821;BME280;11073;48.586;12.066;2022-09-29T01:41:42;95019.69;;;9.38;74.14
21821;BME280;11073;48.586;12.066;2022-09-29T01:44:19;95022.66;;;9.47;74.12
21821;BME280;11073;48.586;12.066;2022-09-29T01:46:55;95025.41;;;9.52;74.13
21821;BME280;11073;48.586;12.066;2022-09-29T01:49:29;95022.97;;;9.56;74.27
21821;BME280;11073;48.586;12.066;2022-09-29T01:52:00;95021.38;;;9.60;73.85
21821;BME280;11073;48.586;12.066;2022-09-29T01:54:36;95020.25;;;9.56;73.70
21821;BME280;11073;48.586;12.066;2022-09-29T01:57:09;95023.53;;;9.58;73.86
21821;BME280;11073;48.586;12.066;2022-09-29T01:59:44;95022.16;;;9.60;73.65
21821;BME280;11073;48.586;12.066;2022-09-29T02:02:21;95024.59;;;9.62;73.71
21821;BME280;11073;48.586;12.066;2022-09-29T02:04:56;95024.34;;;9.58;73.47
21821;BME280;11073;48.586;12.066;2022-09-29T02:07:32;95025.41;;;9.62;73.47
21821;BME280;11073;48.586;12.066;2022-09-29T02:10:05;95027.59;;;9.65;73.54
21821;BME280;11073;48.586;12.066;2022-09-29T02:12:39;95027.59;;;9.65;73.23
21821;BME280;11073;48.586;12.066;2022-09-29T02:15:13;95028.69;;;9.64;72.99
21821;BME280;11073;48.586;12.066;2022-09-29T02:17:47;95027.59;;;9.65;73.18
21821;BME280;11073;48.586;12.066;2022-09-29T02:20:18;95028.38;;;9.61;72.98
21821;BME280;11073;48.586;12.066;2022-09-29T02:22:48;95021.38;;;9.60;73.00
21821;BME280;11073;48.586;12.066;2022-09-29T02:25:18;95027.31;;;9.62;73.06
21821;BME280;11073;48.586;12.066;2022-09-29T02:27:48;95030.00;;;9.62;73.03
21821;BME280;11073;48.586;12.066;2022-09-29T02:30:17;95027.56;;;9.60;72.83
21821;BME280;11073;48.586;12.066;2022-09-29T02:32:48;95031.63;;;9.63;72.80
21821;BME280;11073;48.586;12.066;2022-09-29T02:35:17;95034.59;;;9.61;72.89
21821;BME280;11073;48.586;12.066;2022-09-29T02:37:54;95033.50;;;9.62;72.79
21821;BME280;11073;48.586;12.066;2022-09-29T02:40:40;95034.59;;;9.61;72.72
21821;BME280;11073;48.586;12.066;2022-09-29T02:43:35;95027.31;;;9.57;72.98
21821;BME280;11073;48.586;12.066;2022-09-29T02:46:20;95021.91;;;9.57;72.93
21821;BME280;11073;48.586;12.066;2022-09-29T02:49:06;95017.56;;;9.61;72.98
21821;BME280;11073;48.586;12.066;2022-09-29T02:51:45;95023.25;;;9.59;72.65
21821;BME280;11073;48.586;12.066;2022-09-29T02:54:26;95031.34;;;9.54;72.72
21821;BME280;11073;48.586;12.066;2022-09-29T02:57:09;95033.50;;;9.52;72.70
21821;BME280;11073;48.586;12.066;2022-09-29T02:59:50;95039.16;;;9.56;72.72
21821;BME280;11073;48.586;12.066;2022-09-29T03:02:24;95035.13;;;9.58;72.73
21821;BME280;11073;48.586;12.066;2022-09-29T03:04:54;95043.78;;;9.60;72.58
21821;BME280;11073;48.586;12.066;2022-09-29T03:07:23;95029.47;;;9.60;72.75
21821;BME280;11073;48.586;12.066;2022-09-29T03:09:52;95023.81;;;9.66;72.87
21821;BME280;11073;48.586;12.066;2022-09-29T03:12:21;95031.09;;;9.66;72.64
21821;BME280;11073;48.586;12.066;2022-09-29T03:14:50;95027.31;;;9.67;72.63
21821;BME280;11073;48.586;12.066;2022-09-29T03:17:19;95029.22;;;9.66;72.28
21821;BME280;11073;48.586;12.066;2022-09-29T03:19:48;95025.41;;;9.62;72.29
21821;BME280;11073;48.586;12.066;2022-09-29T03:22:18;95018.13;;;9.58;72.38
21821;BME280;11073;48.586;12.066;2022-09-29T03:24:47;95021.09;;;9.56;72.32
21821;BME280;11073;48.586;12.066;2022-09-29T03:27:16;95014.31;;;9.54;72.35
21821;BME280;11073;48.586;12.066;2022-09-29T03:29:45;95016.47;;;9.52;72.50
21821;BME280;11073;48.586;12.066;2022-09-29T03:32:14;95012.16;;;9.51;72.40
21821;BME280;11073;48.586;12.066;2022-09-29T03:34:44;95005.94;;;9.50;72.39
21821;BME280;11073;48.586;12.066;2022-09-29T03:37:13;95007.28;;;9.48;72.49
21821;BME280;11073;48.586;12.066;2022-09-29T03:39:43;95014.56;;;9.47;72.64
21821;BME280;11073;48.586;12.066;2022-09-29T03:42:12;95021.34;;;9.50;72.63
21821;BME280;11073;48.586;12.066;2022-09-29T03:44:41;95021.88;;;9.52;72.56
21821;BME280;11073;48.586;12.066;2022-09-29T03:47:09;95020.81;;;9.53;72.82
21821;BME280;11073;48.586;12.066;2022-09-29T03:49:38;95018.63;;;9.55;72.50
21821;BME280;11073;48.586;12.066;2022-09-29T03:52:07;95015.94;;;9.55;72.75
21821;BME280;11073;48.586;12.066;2022-09-29T03:54:36;95016.75;;;9.55;72.52
21821;BME280;11073;48.586;12.066;2022-09-29T03:57:05;95012.69;;;9.53;72.59
21821;BME280;11073;48.586;12.066;2022-09-29T03:59:34;95009.47;;;9.51;72.59
21821;BME280;11073;48.586;12.066;2022-09-29T04:02:09;95009.72;;;9.49;72.67
21821;BME280;11073;48.586;12.066;2022-09-29T04:04:38;95003.78;;;9.42;72.60
21821;BME280;11073;48.586;12.066;2022-09-29T04:07:07;95006.44;;;9.37;72.95
21821;BME280;11073;48.586;12.066;2022-09-29T04:09:36;95008.03;;;9.33;72.81
21821;BME280;11073;48.586;12.066;2022-09-29T04:12:07;95000.22;;;9.36;72.92
21821;BME280;11073;48.586;12.066;2022-09-29T04:14:35;95007.78;;;9.39;73.05
21821;BME280;11073;48.586;12.066;2022-09-29T04:17:04;95005.94;;;9.45;73.27
21821;BME280;11073;48.586;12.066;2022-09-29T04:19:33;95007.28;;;9.48;73.04
21821;BME280;11073;48.586;12.066;2022-09-29T04:22:02;95015.66;;;9.51;72.99
21821;BME280;11073;48.586;12.066;2022-09-29T04:24:30;95006.75;;;9.51;73.12
21821;BME280;11073;48.586;12.066;2022-09-29T04:26:59;95009.72;;;9.44;73.08
21821;BME280;11073;48.586;12.066;2022-09-29T04:29:29;95016.97;;;9.38;72.83
21821;BME280;11073;48.586;12.066;2022-09-29T04:31:58;95008.59;;;9.35;72.82
21821;BME280;11073;48.586;12.066;2022-09-29T04:34:27;95006.16;;;9.38;73.12
21821;BME280;11073;48.586;12.066;2022-09-29T04:36:55;94997.25;;;9.38;72.98
21821;BME280;11073;48.586;12.066;2022-09-29T04:39:24;94999.13;;;9.32;72.87
21821;BME280;11073;48.586;12.066;2022-09-29T04:41:53;95006.38;;;9.27;72.64
21821;BME280;11073;48.586;12.066;2022-09-29T04:44:23;95016.13;;;9.23;72.80
21821;BME280;11073;48.586;12.066;2022-09-29T04:46:53;95027.69;;;9.18;72.75
21821;BME280;11073;48.586;12.066;2022-09-29T04:49:22;95022.03;;;9.15;72.71
21821;BME280;11073;48.586;12.066;2022-09-29T04:51:50;95030.63;;;9.11;72.65
21821;BME280;11073;48.586;12.066;2022-09-29T04:54:19;95031.97;;;9.09;72.85
21821;BME280;11073;48.586;12.066;2022-09-29T04:56:48;95032.53;;;9.06;72.88
21821;BME280;11073;48.586;12.066;2022-09-29T04:59:17;95037.34;;;9.04;72.91
21821;BME280;11073;48.586;12.066;2022-09-29T05:01:47;95028.75;;;9.07;72.97
21821;BME280;11073;48.586;12.066;2022-09-29T05:04:18;95035.75;;;9.08;72.74
21821;BME280;11073;48.586;12.066;2022-09-29T05:06:47;95036.25;;;9.05;72.60
21821;BME280;11073;48.586;12.066;2022-09-29T05:09:15;95038.72;;;9.06;72.94
21821;BME280;11073;48.586;12.066;2022-09-29T05:11:49;95031.16;;;9.08;72.93
21821;BME280;11073;48.586;12.066;2022-09-29T05:14:17;95040.84;;;9.04;72.88
21821;BME280;11073;48.586;12.066;2022-09-29T05:16:46;95028.44;;;9.03;73.05
21821;BME280;11073;48.586;12.066;2022-09-29T05:19:15;95034.66;;;9.04;73.12
21821;BME280;11073;48.586;12.066;2022-09-29T05:21:46;95033.31;;;9.06;73.06
21821;BME280;11073;48.586;12.066;2022-09-29T05:24:15;95025.75;;;9.03;72.80
21821;BME280;11073;48.586;12.066;2022-09-29T05:26:44;95017.88;;;8.97;73.02
21821;BME280;11073;48.586;12.066;2022-09-29T05:29:13;95022.19;;;8.93;73.06
21821;BME280;11073;48.586;12.066;2022-09-29T05:31:43;95027.59;;;8.93;73.26
21821;BME280;11073;48.586;12.066;2022-09-29T05:34:13;95030.81;;;8.95;73.39
21821;BME280;11073;48.586;12.066;2022-09-29T05:36:42;95033.84;;;8.98;73.21
21821;BME280;11073;48.586;12.066;2022-09-29T05:39:13;95030.06;;;8.99;73.02
21821;BME280;11073;48.586;12.066;2022-09-29T05:41:43;95029.53;;;9.02;73.11
21821;BME280;11073;48.586;12.066;2022-09-29T05:44:13;95020.91;;;9.05;73.00
21821;BME280;11073;48.586;12.066;2022-09-29T05:46:42;95020.34;;;9.03;73.21
21821;BME280;11073;48.586;12.066;2022-09-29T05:49:11;95026.31;;;9.05;73.01
21821;BME280;11073;48.586;12.066;2022-09-29T05:51:39;95024.34;;;8.96;72.79
21821;BME280;11073;48.586;12.066;2022-09-29T05:54:08;95017.84;;;8.87;72.86
21821;BME280;11073;48.586;12.066;2022-09-29T05:56:38;95016.13;;;8.75;72.84
21821;BME280;11073;48.586;12.066;2022-09-29T05:59:11;95016.94;;;8.71;73.00
21821;BME280;11073;48.586;12.066;2022-09-29T06:01:40;95012.91;;;8.73;72.95
21821;BME280;11073;48.586;12.066;2022-09-29T06:04:10;95002.09;;;8.73;73.16
21821;BME280;11073;48.586;12.066;2022-09-29T06:06:40;95005.13;;;8.77;73.27
21821;BME280;11073;48.586;12.066;2022-09-29T06:09:09;95017.78;;;8.76;73.28
21821;BME280;11073;48.586;12.066;2022-09-29T06:11:38;95014.31;;;8.86;73.35
21821;BME280;11073;48.586;12.066;2022-09-29T06:14:07;95019.50;;;8.98;73.40
21821;BME280;11073;48.586;12.066;2022-09-29T06:16:36;95019.53;;;9.03;73.45
21821;BME280;11073;48.586;12.066;2022-09-29T06:19:05;95028.19;;;9.10;73.28
21821;BME280;11073;48.586;12.066;2022-09-29T06:21:33;95029.31;;;9.14;73.10
21821;BME280;11073;48.586;12.066;2022-09-29T06:24:04;95036.03;;;9.11;73.04
21821;BME280;11073;48.586;12.066;2022-09-29T06:26:34;95041.44;;;9.11;73.32
21821;BME280;11073;48.586;12.066;2022-09-29T06:29:04;95036.09;;;9.22;73.37
21821;BME280;11073;48.586;12.066;2022-09-29T06:31:33;95032.63;;;9.31;73.54
21821;BME280;11073;48.586;12.066;2022-09-29T06:34:03;95018.03;;;9.27;73.15
21821;BME280;11073;48.586;12.066;2022-09-29T06:36:34;95025.09;;;9.44;73.23
21821;BME280;11073;48.586;12.066;2022-09-29T06:39:22;95021.88;;;9.52;73.56
21821;BME280;11073;48.586;12.066;2022-09-29T06:41:51;95012.97;;;9.61;73.60
21821;BME280;11073;48.586;12.066;2022-09-29T06:44:24;95021.13;;;9.77;74.06
21821;BME280;11073;48.586;12.066;2022-09-29T06:46:54;95015.72;;;9.77;73.81
21821;BME280;11073;48.586;12.066;2022-09-29T06:49:23;95013.84;;;9.82;73.90
21821;BME280;11073;48.586;12.066;2022-09-29T06:51:52;95018.72;;;9.90;73.74
21821;BME280;11073;48.586;12.066;2022-09-29T06:54:22;95024.13;;;9.90;73.84
21821;BME280;11073;48.586;12.066;2022-09-29T06:56:53;95023.31;;;9.95;73.86
21821;BME280;11073;48.586;12.066;2022-09-29T06:59:23;95027.91;;;10.05;73.77
21821;BME280;11073;48.586;12.066;2022-09-29T07:01:52;95026.03;;;10.10;73.29
21821;BME280;11073;48.586;12.066;2022-09-29T07:04:21;95033.59;;;10.18;73.39
21821;BME280;11073;48.586;12.066;2022-09-29T07:06:50;95033.91;;;10.22;73.21
21821;BME280;11073;48.586;12.066;2022-09-29T07:09:19;95028.78;;;10.26;73.15
21821;BME280;11073;48.586;12.066;2022-09-29T07:11:50;95031.19;;;10.27;72.89
21821;BME280;11073;48.586;12.066;2022-09-29T07:14:21;95025.22;;;10.20;72.84
21821;BME280;11073;48.586;12.066;2022-09-29T07:16:52;95031.75;;;10.24;73.16
21821;BME280;11073;48.586;12.066;2022-09-29T07:19:21;95032.56;;;10.35;72.79
21821;BME280;11073;48.586;12.066;2022-09-29T07:21:50;95033.94;;;10.37;72.79
21821;BME280;11073;48.586;12.066;2022-09-29T07:24:19;95044.47;;;10.44;72.95
21821;BME280;11073;48.586;12.066;2022-09-29T07:26:47;95039.59;;;10.51;72.90
21821;BME280;11073;48.586;12.066;2022-09-29T07:29:16;95045.53;;;10.53;72.67
21821;BME280;11073;48.586;12.066;2022-09-29T07:31:45;95051.75;;;10.48;72.36
21821;BME280;11073;48.586;12.066;2022-09-29T07:34:20;95052.59;;;10.59;72.18
21821;BME280;11073;48.586;12.066;2022-09-29T07:36:50;95063.09;;;10.71;72.20
21821;BME280;11073;48.586;12.066;2022-09-29T07:39:19;95045.81;;;10.62;72.17
21821;BME280;11073;48.586;12.066;2022-09-29T07:41:49;95062.06;;;10.72;71.90
21821;BME280;11073;48.586;12.066;2022-09-29T07:44:18;95067.16;;;10.78;71.89
21821;BME280;11073;48.586;12.066;2022-09-29T07:46:48;95073.13;;;10.81;71.87
21821;BME280;11073;48.586;12.066;2022-09-29T07:49:17;95072.56;;;10.89;71.90
21821;BME280;11073;48.586;12.066;2022-09-29T07:51:48;95067.13;;;10.99;71.48
21821;BME280;11073;48.586;12.066;2022-09-29T07:54:16;95067.69;;;11.01;71.72
21821;BME280;11073;48.586;12.066;2022-09-29T07:56:46;95067.94;;;11.04;71.66
21821;BME280;11073;48.586;12.066;2022-09-29T07:59:14;95071.47;;;11.05;71.20
21821;BME280;11073;48.586;12.066;2022-09-29T08:01:43;95074.97;;;11.05;71.21
21821;BME280;11073;48.586;12.066;2022-09-29T08:04:13;95073.06;;;11.16;71.35
21821;BME280;11073;48.586;12.066;2022-09-29T08:06:42;95071.97;;;11.12;71.06
21821;BME280;11073;48.586;12.066;2022-09-29T08:09:12;95074.69;;;11.17;70.86
21821;BME280;11073;48.586;12.066;2022-09-29T08:11:42;95079.81;;;11.24;71.00
21821;BME280;11073;48.586;12.066;2022-09-29T08:14:12;95081.16;;;11.31;70.62
21821;BME280;11073;48.586;12.066;2022-09-29T08:16:41;95085.16;;;11.44;70.35
21821;BME280;11073;48.586;12.066;2022-09-29T08:19:10;95084.53;;;11.63;70.30
21821;BME280;11073;48.586;12.066;2022-09-29T08:21:38;95094.28;;;11.74;69.65
21821;BME280;11073;48.586;12.066;2022-09-29T08:24:12;95094.28;;;11.69;69.39
21821;BME280;11073;48.586;12.066;2022-09-29T08:26:41;95104.56;;;11.72;69.30
21821;BME280;11073;48.586;12.066;2022-09-29T08:29:11;95096.69;;;11.80;69.38
21821;BME280;11073;48.586;12.066;2022-09-29T08:31:44;95100.75;;;11.83;69.09
21821;BME280;11073;48.586;12.066;2022-09-29T08:34:14;95099.66;;;11.89;68.78
21821;BME280;11073;48.586;12.066;2022-09-29T08:36:44;95092.47;;;12.08;68.70
21821;BME280;11073;48.586;12.066;2022-09-29T08:39:14;95100.81;;;12.22;68.26
21821;BME280;11073;48.586;12.066;2022-09-29T08:41:49;95097.22;;;12.32;68.46
21821;BME280;11073;48.586;12.066;2022-09-29T08:44:21;95100.66;;;12.48;67.88
21821;BME280;11073;48.586;12.066;2022-09-29T08:47:12;95085.78;;;12.40;67.41
21821;BME280;11073;48.586;12.066;2022-09-29T08:49:45;95093.81;;;12.55;67.10
21821;BME280;11073;48.586;12.066;2022-09-29T08:52:18;95095.94;;;12.58;67.23
21821;BME280;11073;48.586;12.066;2022-09-29T08:54:53;95093.28;;;12.53;66.86
21821;BME280;11073;48.586;12.066;2022-09-29T08:57:24;95094.31;;;12.57;66.79
21821;BME280;11073;48.586;12.066;2022-09-29T08:59:55;95089.50;;;12.49;66.72
21821;BME280;11073;48.586;12.066;2022-09-29T09:05:45;95086.53;;;12.46;66.69
21821;BME280;11073;48.586;12.066;2022-09-29T09:08:23;95089.50;;;12.49;66.66
21821;BME280;11073;48.586;12.066;2022-09-29T09:11:01;95093.03;;;12.50;66.45
21821;BME280;11073;48.586;12.066;2022-09-29T09:13:47;95087.78;;;12.58;66.46
21821;BME280;11073;48.586;12.066;2022-09-29T09:16:24;95089.97;;;12.61;66.15
21821;BME280;11073;48.586;12.066;2022-09-29T09:19:10;95090.19;;;12.65;66.44
21821;BME280;11073;48.586;12.066;2022-09-29T09:21:42;95088.00;;;12.67;66.18
21821;BME280;11073;48.586;12.066;2022-09-29T09:24:15;95082.81;;;12.70;66.39
21821;BME280;11073;48.586;12.066;2022-09-29T09:26:50;95085.28;;;12.67;66.29
21821;BME280;11073;48.586;12.066;2022-09-29T09:29:24;95094.00;;;12.64;66.47
21821;BME280;11073;48.586;12.066;2022-09-29T09:32:06;95091.00;;;12.65;66.00
21821;BME280;11073;48.586;12.066;2022-09-29T09:34:41;95092.09;;;12.64;66.07
21821;BME280;11073;48.586;12.066;2022-09-29T09:37:15;95093.19;;;12.63;66.01
21821;BME280;11073;48.586;12.066;2022-09-29T09:39:48;95088.28;;;12.65;66.05
21821;BME280;11073;48.586;12.066;2022-09-29T09:42:24;95091.78;;;12.71;66.04
21821;BME280;11073;48.586;12.066;2022-09-29T09:44:58;95083.00;;;12.79;65.43
21821;BME280;11073;48.586;12.066;2022-09-29T09:47:34;95067.53;;;12.80;65.34
21821;BME280;11073;48.586;12.066;2022-09-29T09:50:14;95089.75;;;12.82;65.41
21821;BME280;11073;48.586;12.066;2022-09-29T09:52:46;95083.44;;;12.91;65.30
21821;BME280;11073;48.586;12.066;2022-09-29T09:55:18;95084.25;;;12.92;65.45
21821;BME280;11073;48.586;12.066;2022-09-29T09:58:05;95090.50;;;12.92;65.00
21821;BME280;11073;48.586;12.066;2022-09-29T10:00:41;95096.50;;;12.89;64.96
21821;BME280;11073;48.586;12.066;2022-09-29T10:03:10;95101.94;;;12.89;64.85
21821;BME280;11073;48.586;12.066;2022-09-29T10:05:42;95089.41;;;12.93;65.00
21821;BME280;11073;48.586;12.066;2022-09-29T10:08:14;95093.41;;;13.01;64.80
21821;BME280;11073;48.586;12.066;2022-09-29T10:10:46;95092.88;;;12.99;64.73
21821;BME280;11073;48.586;12.066;2022-09-29T10:13:28;95097.00;;;12.96;64.66
21821;BME280;11073;48.586;12.066;2022-09-29T10:16:11;95093.69;;;13.00;64.79
21821;BME280;11073;48.586;12.066;2022-09-29T10:18:42;95100.69;;;13.06;64.73
21821;BME280;11073;48.586;12.066;2022-09-29T10:21:21;95101.19;;;13.13;64.86
21821;BME280;11073;48.586;12.066;2022-09-29T10:23:51;95105.00;;;13.12;64.62
21821;BME280;11073;48.586;12.066;2022-09-29T10:26:23;95104.13;;;13.16;64.35
21821;BME280;11073;48.586;12.066;2022-09-29T10:28:56;95102.78;;;13.14;64.29
21821;BME280;11073;48.586;12.066;2022-09-29T10:31:28;95109.94;;;13.05;64.23
21821;BME280;11073;48.586;12.066;2022-09-29T10:33:59;95109.16;;;13.04;64.37
21821;BME280;11073;48.586;12.066;2022-09-29T10:36:31;95110.19;;;13.08;63.99
21821;BME280;11073;48.586;12.066;2022-09-29T10:39:01;95111.88;;;13.04;63.65
21821;BME280;11073;48.586;12.066;2022-09-29T10:41:49;95117.19;;;13.14;63.94
21821;BME280;11073;48.586;12.066;2022-09-29T10:44:21;95108.97;;;13.24;63.93
21821;BME280;11073;48.586;12.066;2022-09-29T10:46:52;95112.16;;;13.32;63.95
21821;BME280;11073;48.586;12.066;2022-09-29T10:49:23;95108.91;;;13.30;63.71
21821;BME280;11073;48.586;12.066;2022-09-29T10:51:57;95120.22;;;13.42;63.47
21821;BME280;11073;48.586;12.066;2022-09-29T10:54:28;95120.44;;;13.45;63.09
21821;BME280;11073;48.586;12.066;2022-09-29T10:56:58;95126.34;;;13.52;63.14
21821;BME280;11073;48.586;12.066;2022-09-29T10:59:29;95128.28;;;13.47;62.72
21821;BME280;11073;48.586;12.066;2022-09-29T11:02:00;95128.28;;;13.47;62.88
21821;BME280;11073;48.586;12.066;2022-09-29T11:04:32;95128.13;;;13.38;63.19
21821;BME280;11073;48.586;12.066;2022-09-29T11:07:07;95129.84;;;13.29;62.84
21821;BME280;11073;48.586;12.066;2022-09-29T11:09:39;95129.03;;;13.29;62.73
21821;BME280;11073;48.586;12.066;2022-09-29T11:12:25;95115.50;;;13.23;62.65
21821;BME280;11073;48.586;12.066;2022-09-29T11:14:56;95132.56;;;13.29;62.87
21821;BME280;11073;48.586;12.066;2022-09-29T11:17:26;95135.78;;;13.31;62.40
21821;BME280;11073;48.586;12.066;2022-09-29T11:19:58;95136.38;;;13.28;62.17
21821;BME280;11073;48.586;12.066;2022-09-29T11:22:44;95133.69;;;13.23;62.34
21821;BME280;11073;48.586;12.066;2022-09-29T11:25:39;95134.06;;;13.11;62.02
21821;BME280;11073;48.586;12.066;2022-09-29T11:31:20;95138.97;;;13.09;62.03
21821;BME280;11073;48.586;12.066;2022-09-29T11:33:59;95144.97;;;13.06;61.68
21821;BME280;11073;48.586;12.066;2022-09-29T11:36:37;95141.97;;;13.08;61.59
21821;BME280;11073;48.586;12.066;2022-09-29T11:39:19;95143.50;;;13.19;61.95
21821;BME280;11073;48.586;12.066;2022-09-29T11:41:59;95140.69;;;13.34;62.22
21821;BME280;11073;48.586;12.066;2022-09-29T11:44:45;95134.19;;;13.30;61.82
21821;BME280;11073;48.586;12.066;2022-09-29T11:47:27;95133.66;;;13.28;61.79
21821;BME280;11073;48.586;12.066;2022-09-29T11:50:11;95134.69;;;13.32;61.74
21821;BME280;11073;48.586;12.066;2022-09-29T11:52:52;95135.25;;;13.34;61.90
21821;BME280;11073;48.586;12.066;2022-09-29T11:55:37;95131.75;;;13.29;62.32
21821;BME280;11073;48.586;12.066;2022-09-29T11:58:19;95125.22;;;13.30;62.45
21821;BME280;11073;48.586;12.066;2022-09-29T12:01:06;95124.41;;;13.29;62.53
21821;BME280;11073;48.586;12.066;2022-09-29T12:03:45;95120.94;;;13.23;62.57
21821;BME280;11073;48.586;12.066;2022-09-29T12:06:30;95120.41;;;13.21;63.21
21821;BME280;11073;48.586;12.066;2022-09-29T12:09:17;95126.94;;;13.20;63.23
21821;BME280;11073;48.586;12.066;2022-09-29T12:11:58;95136.72;;;13.21;63.79
21821;BME280;11073;48.586;12.066;2022-09-29T12:15:01;95139.66;;;13.25;63.79
21821;BME280;11073;48.586;12.066;2022-09-29T12:17:34;95140.19;;;13.27;63.81
21821;BME280;11073;48.586;12.066;2022-09-29T12:20:15;95155.69;;;13.27;63.89
21821;BME280;11073;48.586;12.066;2022-09-29T12:22:46;95147.59;;;13.16;63.79
21821;BME280;11073;48.586;12.066;2022-09-29T12:25:17;95131.91;;;13.08;64.08
21821;BME280;11073;48.586;12.066;2022-09-29T12:27:50;95143.75;;;13.22;64.34
21821;BME280;11073;48.586;12.066;2022-09-29T12:30:22;95145.41;;;13.18;64.31
21821;BME280;11073;48.586;12.066;2022-09-29T12:32:56;95127.34;;;13.04;64.42
21821;BME280;11073;48.586;12.066;2022-09-29T12:35:34;95153.56;;;13.18;64.50
21821;BME280;11073;48.586;12.066;2022-09-29T12:38:11;95148.94;;;13.19;64.75
21821;BME280;11073;48.586;12.066;2022-09-29T12:40:47;95141.88;;;13.18;64.87
21821;BME280;11073;48.586;12.066;2022-09-29T12:43:23;95141.06;;;13.17;64.77
21821;BME280;11073;48.586;12.066;2022-09-29T12:45:58;95145.69;;;13.22;65.08
21821;BME280;11073;48.586;12.066;2022-09-29T12:48:37;95141.56;;;13.24;65.12
21821;BME280;11073;48.586;12.066;2022-09-29T12:51:17;95145.81;;;13.36;65.02
21821;BME280;11073;48.586;12.066;2022-09-29T12:53:59;95145.06;;;13.30;64.99
21821;BME280;11073;48.586;12.066;2022-09-29T12:56:34;95152.88;;;13.37;65.00
21821;BME280;11073;48.586;12.066;2022-09-29T12:59:06;95150.34;;;13.45;65.40
21821;BME280;11073;48.586;12.066;2022-09-29T13:01:39;95150.00;;;13.52;65.30
21821;BME280;11073;48.586;12.066;2022-09-29T13:04:39;95156.41;;;13.61;65.42
21821;BME280;11073;48.586;12.066;2022-09-29T13:10:57;95145.63;;;13.56;65.20
21821;BME280;11073;48.586;12.066;2022-09-29T13:16:50;95148.22;;;13.66;65.17
21821;BME280;11073;48.586;12.066;2022-09-29T13:19:46;95144.56;;;13.76;65.44
21821;BME280;11073;48.586;12.066;2022-09-29T13:22:35;95150.19;;;13.85;65.41
21821;BME280;11073;48.586;12.066;2022-09-29T13:25:20;95139.47;;;13.93;65.36
21821;BME280;11073;48.586;12.066;2022-09-29T13:27:52;95137.50;;;13.99;65.09
21821;BME280;11073;48.586;12.066;2022-09-29T13:30:25;95136.31;;;14.05;65.19
21821;BME280;11073;48.586;12.066;2022-09-29T13:33:00;95131.31;;;14.12;64.96
21821;BME280;11073;48.586;12.066;2022-09-29T13:35:37;95134.19;;;14.02;64.46
21821;BME280;11073;48.586;12.066;2022-09-29T13:38:12;95144.41;;;14.10;64.62
21821;BME280;11073;48.586;12.066;2022-09-29T13:41:08;95148.25;;;14.09;64.19